sensor_id;sensor_type;location;lat;lon;timestamp;P1;durP1;ratioP1;P2;durP2;ratioP2
51616;SDS011;37697;52.588;13.394;2023-02-01T00:00:35;17.60;;;4.30;;
51616;SDS011;37697;52.588;13.394;2023-02-01T00:05:58;16.00;;;2.90;;
51616;SDS011;37697;52.588;13.394;2023-02-01T00:11:03;19.80;;;3.40;;
51616;SDS011;37697;52.588;13.394;2023-02-01T00:16:12;16.90;;;3.00;;
51616;SDS011;37697;52.588;13.394;2023-02-01T00:21:19;14.40;;;3.10;;
51616;SDS011;37697;52.588;13.394;2023-02-01T00:26:25;21.70;;;3.80;;
51616;SDS011;37697;52.588;13.394;2023-02-01T00:31:33;21.60;;;3.30;;
51616;SDS011;37697;52.588;13.394;2023-02-01T00:36:35;13.20;;;2.60;;
51616;SDS011;37697;52.588;13.394;2023-02-01T00:41:38;20.20;;;2.80;;
51616;SDS011;37697;52.588;13.394;2023-02-01T00:46:41;17.10;;;3.40;;
51616;SDS011;37697;52.588;13.394;2023-02-01T00:51:43;19.50;;;3.00;;
51616;SDS011;37697;52.588;13.394;2023-02-01T00:56:46;13.60;;;2.40;;
51616;SDS011;37697;52.588;13.394;2023-02-01T01:01:48;10.10;;;2.00;;
51616;SDS011;37697;52.588;13.394;2023-02-01T01:06:51;9.80;;;2.80;;
51616;SDS011;37697;52.588;13.394;2023-02-01T01:11:54;11.60;;;2.50;;
51616;SDS011;37697;52.588;13.394;2023-02-01T01:16:56;13.60;;;2.40;;
51616;SDS011;37697;52.588;13.394;2023-02-01T01:21:59;11.90;;;2.50;;
51616;SDS011;37697;52.588;13.394;2023-02-01T01:27:02;12.10;;;2.10;;
51616;SDS011;37697;52.588;13.394;2023-02-01T01:32:05;9.50;;;2.00;;
51616;SDS011;37697;52.588;13.394;2023-02-01T01:37:08;10.10;;;2.20;;
51616;SDS011;37697;52.588;13.394;2023-02-01T01:42:11;12.00;;;2.10;;
51616;SDS011;37697;52.588;13.394;2023-02-01T01:47:15;15.90;;;2.70;;
51616;SDS011;37697;52.588;13.394;2023-02-01T01:52:18;16.00;;;2.90;;
51616;SDS011;37697;52.588;13.394;2023-02-01T01:57:25;15.60;;;3.70;;
51616;SDS011;37697;52.588;13.394;2023-02-01T02:02:30;11.70;;;2.30;;
51616;SDS011;37697;52.588;13.394;2023-02-01T02:07:35;20.50;;;2.30;;
51616;SDS011;37697;52.588;13.394;2023-02-01T02:12:42;14.00;;;3.00;;
51616;SDS011;37697;52.588;13.394;2023-02-01T02:28:44;14.80;;;2.80;;
51616;SDS011;37697;52.588;13.394;2023-02-01T02:34:10;16.90;;;2.60;;
51616;SDS011;37697;52.588;13.394;2023-02-01T02:50:35;19.90;;;3.20;;
51616;SDS011;37697;52.588;13.394;2023-02-01T02:56:01;21.40;;;3.00;;
51616;SDS011;37697;52.588;13.394;2023-02-01T03:01:26;17.10;;;3.60;;
51616;SDS011;37697;52.588;13.394;2023-02-01T03:06:49;14.40;;;3.00;;
51616;SDS011;37697;52.588;13.394;2023-02-01T03:11:55;15.50;;;2.50;;
51616;SDS011;37697;52.588;13.394;2023-02-01T03:17:24;11.50;;;2.50;;
51616;SDS011;37697;52.588;13.394;2023-02-01T03:22:33;22.50;;;3.70;;
51616;SDS011;37697;52.588;13.394;2023-02-01T03:27:41;18.00;;;2.60;;
51616;SDS011;37697;52.588;13.394;2023-02-01T03:32:55;16.30;;;3.40;;
51616;SDS011;37697;52.588;13.394;2023-02-01T03:38:06;18.50;;;3.50;;
51616;SDS011;37697;52.588;13.394;2023-02-01T03:43:16;17.40;;;3.30;;
51616;SDS011;37697;52.588;13.394;2023-02-01T03:48:22;12.00;;;2.80;;
51616;SDS011;37697;52.588;13.394;2023-02-01T03:53:27;18.70;;;2.80;;
51616;SDS011;37697;52.588;13.394;2023-02-01T03:58:31;19.70;;;3.10;;
51616;SDS011;37697;52.588;13.394;2023-02-01T04:03:34;17.40;;;3.10;;
51616;SDS011;37697;52.588;13.394;2023-02-01T04:08:37;14.70;;;3.10;;
51616;SDS011;37697;52.588;13.394;2023-02-01T04:13:40;15.10;;;3.30;;
51616;SDS011;37697;52.588;13.394;2023-02-01T04:18:43;21.10;;;3.00;;
51616;SDS011;37697;52.588;13.394;2023-02-01T04:23:45;16.80;;;3.60;;
51616;SDS011;37697;52.588;13.394;2023-02-01T04:28:48;17.80;;;2.60;;
51616;SDS011;37697;52.588;13.394;2023-02-01T04:33:52;19.30;;;3.60;;
51616;SDS011;37697;52.588;13.394;2023-02-01T04:38:56;20.10;;;3.40;;
51616;SDS011;37697;52.588;13.394;2023-02-01T04:43:58;18.20;;;3.20;;
51616;SDS011;37697;52.588;13.394;2023-02-01T04:49:01;15.10;;;3.10;;
51616;SDS011;37697;52.588;13.394;2023-02-01T04:54:03;18.70;;;3.90;;
51616;SDS011;37697;52.588;13.394;2023-02-01T04:59:07;16.00;;;3.30;;
51616;SDS011;37697;52.588;13.394;2023-02-01T05:04:09;21.00;;;3.60;;
51616;SDS011;37697;52.588;13.394;2023-02-01T05:09:12;20.90;;;3.40;;
51616;SDS011;37697;52.588;13.394;2023-02-01T05:14:15;15.50;;;3.40;;
51616;SDS011;37697;52.588;13.394;2023-02-01T05:19:18;17.50;;;3.20;;
51616;SDS011;37697;52.588;13.394;2023-02-01T05:24:21;21.30;;;3.40;;
51616;SDS011;37697;52.588;13.394;2023-02-01T05:29:24;21.60;;;3.70;;
51616;SDS011;37697;52.588;13.394;2023-02-01T05:34:27;18.10;;;3.80;;
51616;SDS011;37697;52.588;13.394;2023-02-01T05:39:29;14.00;;;3.10;;
51616;SDS011;37697;52.588;13.394;2023-02-01T05:44:32;18.00;;;3.40;;
51616;SDS011;37697;52.588;13.394;2023-02-01T05:49:34;18.60;;;3.00;;
51616;SDS011;37697;52.588;13.394;2023-02-01T05:54:37;19.40;;;4.80;;
51616;SDS011;37697;52.588;13.394;2023-02-01T05:59:40;12.50;;;3.00;;
51616;SDS011;37697;52.588;13.394;2023-02-01T06:04:47;22.20;;;3.00;;
51616;SDS011;37697;52.588;13.394;2023-02-01T06:09:49;15.10;;;3.00;;
51616;SDS011;37697;52.588;13.394;2023-02-01T06:14:52;22.50;;;3.60;;
51616;SDS011;37697;52.588;13.394;2023-02-01T06:19:55;20.60;;;3.20;;
51616;SDS011;37697;52.588;13.394;2023-02-01T06:24:58;15.60;;;3.10;;
51616;SDS011;37697;52.588;13.394;2023-02-01T06:30:01;18.40;;;4.60;;
51616;SDS011;37697;52.588;13.394;2023-02-01T06:35:06;21.90;;;3.80;;
51616;SDS011;37697;52.588;13.394;2023-02-01T06:40:18;18.50;;;3.80;;
51616;SDS011;37697;52.588;13.394;2023-02-01T06:45:21;22.40;;;4.00;;
51616;SDS011;37697;52.588;13.394;2023-02-01T06:50:23;18.90;;;3.70;;
51616;SDS011;37697;52.588;13.394;2023-02-01T06:55:26;21.80;;;4.20;;
51616;SDS011;37697;52.588;13.394;2023-02-01T07:00:29;18.20;;;3.50;;
51616;SDS011;37697;52.588;13.394;2023-02-01T07:05:32;16.50;;;3.20;;
51616;SDS011;37697;52.588;13.394;2023-02-01T07:10:35;12.70;;;3.20;;
51616;SDS011;37697;52.588;13.394;2023-02-01T07:15:37;19.90;;;3.90;;
51616;SDS011;37697;52.588;13.394;2023-02-01T07:20:40;12.60;;;3.30;;
51616;SDS011;37697;52.588;13.394;2023-02-01T07:25:43;16.40;;;3.10;;
51616;SDS011;37697;52.588;13.394;2023-02-01T07:30:46;14.90;;;3.00;;
51616;SDS011;37697;52.588;13.394;2023-02-01T07:35:53;15.10;;;2.90;;
51616;SDS011;37697;52.588;13.394;2023-02-01T07:40:59;11.10;;;3.50;;
51616;SDS011;37697;52.588;13.394;2023-02-01T07:46:03;9.90;;;2.80;;
51616;SDS011;37697;52.588;13.394;2023-02-01T07:51:09;12.10;;;3.20;;
51616;SDS011;37697;52.588;13.394;2023-02-01T07:56:15;18.20;;;4.00;;
51616;SDS011;37697;52.588;13.394;2023-02-01T08:01:21;12.80;;;2.90;;
51616;SDS011;37697;52.588;13.394;2023-02-01T08:06:30;11.50;;;2.70;;
51616;SDS011;37697;52.588;13.394;2023-02-01T08:11:34;8.50;;;2.40;;
51616;SDS011;37697;52.588;13.394;2023-02-01T08:16:40;8.60;;;2.70;;
51616;SDS011;37697;52.588;13.394;2023-02-01T08:21:43;9.60;;;2.00;;
51616;SDS011;37697;52.588;13.394;2023-02-01T08:26:45;9.90;;;2.30;;
51616;SDS011;37697;52.588;13.394;2023-02-01T08:31:48;12.20;;;2.90;;
51616;SDS011;37697;52.588;13.394;2023-02-01T08:36:52;7.10;;;1.90;;
51616;SDS011;37697;52.588;13.394;2023-02-01T08:41:59;8.10;;;2.20;;
51616;SDS011;37697;52.588;13.394;2023-02-01T08:47:22;9.10;;;2.20;;
51616;SDS011;37697;52.588;13.394;2023-02-01T08:52:25;6.80;;;2.30;;
51616;SDS011;37697;52.588;13.394;2023-02-01T08:57:28;8.20;;;2.10;;
51616;SDS011;37697;52.588;13.394;2023-02-01T09:02:30;5.20;;;1.50;;
51616;SDS011;37697;52.588;13.394;2023-02-01T09:07:33;5.00;;;1.70;;
51616;SDS011;37697;52.588;13.394;2023-02-01T09:12:37;4.40;;;1.70;;
51616;SDS011;37697;52.588;13.394;2023-02-01T09:17:40;4.70;;;1.50;;
51616;SDS011;37697;52.588;13.394;2023-02-01T09:22:45;7.20;;;1.60;;
51616;SDS011;37697;52.588;13.394;2023-02-01T09:27:47;6.70;;;1.70;;
51616;SDS011;37697;52.588;13.394;2023-02-01T09:32:50;6.40;;;2.10;;
51616;SDS011;37697;52.588;13.394;2023-02-01T09:37:53;5.70;;;1.30;;
51616;SDS011;37697;52.588;13.394;2023-02-01T09:48:03;4.50;;;1.20;;
51616;SDS011;37697;52.588;13.394;2023-02-01T09:53:21;5.60;;;1.10;;
51616;SDS011;37697;52.588;13.394;2023-02-01T10:03:40;2.50;;;1.00;;
51616;SDS011;37697;52.588;13.394;2023-02-01T10:14:32;3.90;;;1.10;;
51616;SDS011;37697;52.588;13.394;2023-02-01T10:30:44;7.40;;;2.50;;
51616;SDS011;37697;52.588;13.394;2023-02-01T10:35:52;6.30;;;1.50;;
51616;SDS011;37697;52.588;13.394;2023-02-01T10:41:02;4.50;;;1.20;;
51616;SDS011;37697;52.588;13.394;2023-02-01T10:46:10;8.80;;;1.70;;
51616;SDS011;37697;52.588;13.394;2023-02-01T10:51:14;4.90;;;1.50;;
51616;SDS011;37697;52.588;13.394;2023-02-01T10:56:24;3.80;;;1.00;;
51616;SDS011;37697;52.588;13.394;2023-02-01T11:01:37;4.80;;;0.90;;
51616;SDS011;37697;52.588;13.394;2023-02-01T11:06:44;5.60;;;1.20;;
51616;SDS011;37697;52.588;13.394;2023-02-01T11:16:55;6.50;;;1.30;;
51616;SDS011;37697;52.588;13.394;2023-02-01T11:22:00;7.50;;;1.40;;
51616;SDS011;37697;52.588;13.394;2023-02-01T11:27:04;8.50;;;2.10;;
51616;SDS011;37697;52.588;13.394;2023-02-01T11:32:23;7.30;;;2.10;;
51616;SDS011;37697;52.588;13.394;2023-02-01T11:37:28;7.60;;;1.60;;
51616;SDS011;37697;52.588;13.394;2023-02-01T11:42:37;9.10;;;1.60;;
51616;SDS011;37697;52.588;13.394;2023-02-01T11:47:57;8.50;;;1.80;;
51616;SDS011;37697;52.588;13.394;2023-02-01T12:14:55;9.60;;;1.90;;
51616;SDS011;37697;52.588;13.394;2023-02-01T12:20:23;6.20;;;1.40;;
51616;SDS011;37697;52.588;13.394;2023-02-01T12:25:39;3.60;;;1.20;;
51616;SDS011;37697;52.588;13.394;2023-02-01T12:31:12;7.80;;;1.80;;
51616;SDS011;37697;52.588;13.394;2023-02-01T12:41:58;5.80;;;1.60;;
51616;SDS011;37697;52.588;13.394;2023-02-01T12:47:16;7.50;;;1.70;;
51616;SDS011;37697;52.588;13.394;2023-02-01T12:52:35;10.90;;;1.90;;
51616;SDS011;37697;52.588;13.394;2023-02-01T13:08:46;4.90;;;1.10;;
51616;SDS011;37697;52.588;13.394;2023-02-01T13:19:27;0.60;;;0.30;;
51616;SDS011;37697;52.588;13.394;2023-02-01T13:24:50;0.70;;;0.40;;
51616;SDS011;37697;52.588;13.394;2023-02-01T13:30:16;1.10;;;0.50;;
51616;SDS011;37697;52.588;13.394;2023-02-01T13:35:31;5.40;;;1.20;;
51616;SDS011;37697;52.588;13.394;2023-02-01T13:40:47;6.40;;;1.40;;
51616;SDS011;37697;52.588;13.394;2023-02-01T13:46:13;5.30;;;1.80;;
51616;SDS011;37697;52.588;13.394;2023-02-01T13:51:18;9.40;;;2.20;;
51616;SDS011;37697;52.588;13.394;2023-02-01T13:56:39;9.30;;;2.10;;
51616;SDS011;37697;52.588;13.394;2023-02-01T14:01:44;8.40;;;1.90;;
51616;SDS011;37697;52.588;13.394;2023-02-01T14:06:46;11.30;;;2.60;;
51616;SDS011;37697;52.588;13.394;2023-02-01T14:11:50;15.30;;;3.50;;
51616;SDS011;37697;52.588;13.394;2023-02-01T14:27:27;6.60;;;1.70;;
51616;SDS011;37697;52.588;13.394;2023-02-01T14:32:36;8.90;;;1.60;;
51616;SDS011;37697;52.588;13.394;2023-02-01T14:37:42;7.50;;;1.90;;
51616;SDS011;37697;52.588;13.394;2023-02-01T14:42:49;12.70;;;2.60;;
51616;SDS011;37697;52.588;13.394;2023-02-01T15:08:47;9.90;;;2.40;;
51616;SDS011;37697;52.588;13.394;2023-02-01T15:13:51;7.40;;;2.50;;
51616;SDS011;37697;52.588;13.394;2023-02-01T15:19:06;6.40;;;1.90;;
51616;SDS011;37697;52.588;13.394;2023-02-01T15:24:14;6.40;;;1.60;;
51616;SDS011;37697;52.588;13.394;2023-02-01T15:29:22;7.30;;;1.60;;
51616;SDS011;37697;52.588;13.394;2023-02-01T15:34:46;5.90;;;2.10;;
51616;SDS011;37697;52.588;13.394;2023-02-01T15:40:03;3.70;;;1.30;;
51616;SDS011;37697;52.588;13.394;2023-02-01T15:45:21;4.00;;;1.20;;
51616;SDS011;37697;52.588;13.394;2023-02-01T15:50:28;2.20;;;1.00;;
51616;SDS011;37697;52.588;13.394;2023-02-01T15:55:37;1.10;;;0.60;;
51616;SDS011;37697;52.588;13.394;2023-02-01T16:00:45;1.60;;;0.60;;
51616;SDS011;37697;52.588;13.394;2023-02-01T16:05:54;1.00;;;0.40;;
51616;SDS011;37697;52.588;13.394;2023-02-01T16:16:10;1.20;;;0.70;;
51616;SDS011;37697;52.588;13.394;2023-02-01T16:21:16;1.70;;;0.50;;
51616;SDS011;37697;52.588;13.394;2023-02-01T16:26:19;3.70;;;1.30;;
51616;SDS011;37697;52.588;13.394;2023-02-01T16:31:24;0.60;;;0.50;;
51616;SDS011;37697;52.588;13.394;2023-02-01T16:36:30;1.40;;;0.80;;
51616;SDS011;37697;52.588;13.394;2023-02-01T16:41:33;0.90;;;0.40;;
51616;SDS011;37697;52.588;13.394;2023-02-01T16:46:38;1.90;;;0.70;;
51616;SDS011;37697;52.588;13.394;2023-02-01T16:51:43;0.80;;;0.60;;
51616;SDS011;37697;52.588;13.394;2023-02-01T16:56:46;1.50;;;0.80;;
51616;SDS011;37697;52.588;13.394;2023-02-01T17:01:48;3.30;;;1.40;;
51616;SDS011;37697;52.588;13.394;2023-02-01T17:06:51;2.00;;;0.90;;
51616;SDS011;37697;52.588;13.394;2023-02-01T17:11:54;4.10;;;0.80;;
51616;SDS011;37697;52.588;13.394;2023-02-01T17:16:57;2.40;;;1.10;;
51616;SDS011;37697;52.588;13.394;2023-02-01T17:22:02;3.80;;;1.20;;
51616;SDS011;37697;52.588;13.394;2023-02-01T17:27:05;2.00;;;1.00;;
51616;SDS011;37697;52.588;13.394;2023-02-01T17:32:23;3.70;;;1.20;;
51616;SDS011;37697;52.588;13.394;2023-02-01T17:37:31;5.80;;;1.30;;
51616;SDS011;37697;52.588;13.394;2023-02-01T17:42:36;3.00;;;1.30;;
51616;SDS011;37697;52.588;13.394;2023-02-01T17:47:40;3.60;;;1.40;;
51616;SDS011;37697;52.588;13.394;2023-02-01T17:52:43;4.00;;;1.10;;
51616;SDS011;37697;52.588;13.394;2023-02-01T17:57:46;4.90;;;1.50;;
51616;SDS011;37697;52.588;13.394;2023-02-01T18:02:49;2.90;;;1.20;;
51616;SDS011;37697;52.588;13.394;2023-02-01T18:07:52;6.30;;;1.30;;
51616;SDS011;37697;52.588;13.394;2023-02-01T18:12:55;4.50;;;1.30;;
51616;SDS011;37697;52.588;13.394;2023-02-01T18:17:58;6.40;;;1.50;;
51616;SDS011;37697;52.588;13.394;2023-02-01T18:23:01;4.10;;;1.20;;
51616;SDS011;37697;52.588;13.394;2023-02-01T18:28:04;7.90;;;1.50;;
51616;SDS011;37697;52.588;13.394;2023-02-01T18:33:11;6.00;;;1.60;;
51616;SDS011;37697;52.588;13.394;2023-02-01T18:38:15;6.60;;;1.40;;
51616;SDS011;37697;52.588;13.394;2023-02-01T18:43:18;6.10;;;1.40;;
51616;SDS011;37697;52.588;13.394;2023-02-01T18:48:24;7.40;;;1.50;;
51616;SDS011;37697;52.588;13.394;2023-02-01T18:53:27;8.50;;;1.50;;
51616;SDS011;37697;52.588;13.394;2023-02-01T18:58:30;5.80;;;1.90;;
51616;SDS011;37697;52.588;13.394;2023-02-01T19:03:33;10.20;;;1.70;;
51616;SDS011;37697;52.588;13.394;2023-02-01T19:08:48;7.80;;;1.80;;
51616;SDS011;37697;52.588;13.394;2023-02-01T19:13:52;6.00;;;1.20;;
51616;SDS011;37697;52.588;13.394;2023-02-01T19:18:56;9.10;;;1.70;;
51616;SDS011;37697;52.588;13.394;2023-02-01T19:23:59;7.10;;;1.40;;
51616;SDS011;37697;52.588;13.394;2023-02-01T19:29:01;11.20;;;1.90;;
51616;SDS011;37697;52.588;13.394;2023-02-01T19:34:04;15.50;;;2.20;;
51616;SDS011;37697;52.588;13.394;2023-02-01T19:39:07;10.30;;;1.70;;
51616;SDS011;37697;52.588;13.394;2023-02-01T19:44:10;8.90;;;1.60;;
51616;SDS011;37697;52.588;13.394;2023-02-01T19:49:13;9.80;;;2.00;;
51616;SDS011;37697;52.588;13.394;2023-02-01T19:54:16;11.40;;;2.00;;
51616;SDS011;37697;52.588;13.394;2023-02-01T19:59:19;12.90;;;2.40;;
51616;SDS011;37697;52.588;13.394;2023-02-01T20:04:24;8.00;;;1.80;;
51616;SDS011;37697;52.588;13.394;2023-02-01T20:09:28;8.80;;;1.60;;
51616;SDS011;37697;52.588;13.394;2023-02-01T20:14:31;11.20;;;1.90;;
51616;SDS011;37697;52.588;13.394;2023-02-01T20:19:34;9.30;;;1.90;;
51616;SDS011;37697;52.588;13.394;2023-02-01T20:24:37;9.30;;;1.60;;
51616;SDS011;37697;52.588;13.394;2023-02-01T20:29:40;10.40;;;1.70;;
51616;SDS011;37697;52.588;13.394;2023-02-01T20:34:43;13.10;;;2.10;;
51616;SDS011;37697;52.588;13.394;2023-02-01T20:39:46;9.50;;;2.10;;
51616;SDS011;37697;52.588;13.394;2023-02-01T20:44:48;14.30;;;2.70;;
51616;SDS011;37697;52.588;13.394;2023-02-01T20:49:51;10.40;;;1.80;;
51616;SDS011;37697;52.588;13.394;2023-02-01T20:54:54;8.30;;;2.00;;
51616;SDS011;37697;52.588;13.394;2023-02-01T20:59:56;8.10;;;1.90;;
51616;SDS011;37697;52.588;13.394;2023-02-01T21:04:59;7.60;;;1.60;;
51616;SDS011;37697;52.588;13.394;2023-02-01T21:10:02;13.60;;;2.40;;
51616;SDS011;37697;52.588;13.394;2023-02-01T21:15:06;9.60;;;1.40;;
51616;SDS011;37697;52.588;13.394;2023-02-01T21:20:09;7.10;;;2.10;;
51616;SDS011;37697;52.588;13.394;2023-02-01T21:25:12;7.50;;;1.60;;
51616;SDS011;37697;52.588;13.394;2023-02-01T21:30:15;11.20;;;1.60;;
51616;SDS011;37697;52.588;13.394;2023-02-01T21:35:17;10.90;;;1.90;;
51616;SDS011;37697;52.588;13.394;2023-02-01T21:40:20;8.10;;;1.80;;
51616;SDS011;37697;52.588;13.394;2023-02-01T21:45:22;7.50;;;1.90;;
51616;SDS011;37697;52.588;13.394;2023-02-01T21:50:26;10.20;;;2.10;;
51616;SDS011;37697;52.588;13.394;2023-02-01T21:55:28;11.50;;;1.90;;
51616;SDS011;37697;52.588;13.394;2023-02-01T22:00:31;10.40;;;2.20;;
51616;SDS011;37697;52.588;13.394;2023-02-01T22:05:34;8.50;;;1.40;;
51616;SDS011;37697;52.588;13.394;2023-02-01T22:10:36;12.40;;;2.20;;
51616;SDS011;37697;52.588;13.394;2023-02-01T22:15:40;8.40;;;1.50;;
51616;SDS011;37697;52.588;13.394;2023-02-01T22:20:43;12.00;;;2.90;;
51616;SDS011;37697;52.588;13.394;2023-02-01T22:25:46;11.20;;;1.60;;
51616;SDS011;37697;52.588;13.394;2023-02-01T22:30:48;8.00;;;1.60;;
51616;SDS011;37697;52.588;13.394;2023-02-01T22:35:51;8.40;;;1.70;;
51616;SDS011;37697;52.588;13.394;2023-02-01T22:40:57;13.30;;;2.70;;
51616;SDS011;37697;52.588;13.394;2023-02-01T22:46:03;11.30;;;1.90;;
51616;SDS011;37697;52.588;13.394;2023-02-01T22:51:12;16.70;;;1.90;;
51616;SDS011;37697;52.588;13.394;2023-02-01T22:56:29;10.10;;;1.90;;
51616;SDS011;37697;52.588;13.394;2023-02-01T23:01:34;9.80;;;2.10;;
51616;SDS011;37697;52.588;13.394;2023-02-01T23:06:36;11.10;;;1.90;;
51616;SDS011;37697;52.588;13.394;2023-02-01T23:11:40;12.20;;;2.10;;
51616;SDS011;37697;52.588;13.394;2023-02-01T23:16:44;10.20;;;1.90;;
51616;SDS011;37697;52.588;13.394;2023-02-01T23:21:47;10.80;;;2.20;;
51616;SDS011;37697;52.588;13.394;2023-02-01T23:26:51;10.00;;;1.60;;
51616;SDS011;37697;52.588;13.394;2023-02-01T23:31:53;13.90;;;2.60;;
51616;SDS011;37697;52.588;13.394;2023-02-01T23:36:56;13.70;;;2.40;;
51616;SDS011;37697;52.588;13.394;2023-02-01T23:41:59;12.50;;;2.30;;
51616;SDS011;37697;52.588;13.394;2023-02-01T23:47:03;17.60;;;2.50;;
51616;SDS011;37697;52.588;13.394;2023-02-01T23:52:06;11.00;;;2.20;;
51616;SDS011;37697;52.588;13.394;2023-02-01T23:57:09;14.70;;;3.00;;
